sensor_id;sensor_type;location;lat;lon;timestamp;P1;durP1;ratioP1;P2;durP2;ratioP2
21202;SDS011;10759;51.982;9.232;2022-07-24T00:01:41;1.60;;;1.50;;
21202;SDS011;10759;51.982;9.232;2022-07-24T00:04:09;1.63;;;1.52;;
21202;SDS011;10759;51.982;9.232;2022-07-24T00:06:38;2.00;;;1.90;;
21202;SDS011;10759;51.982;9.232;2022-07-24T00:09:08;3.08;;;2.35;;
21202;SDS011;10759;51.982;9.232;2022-07-24T00:11:36;1.88;;;1.77;;
21202;SDS011;10759;51.982;9.232;2022-07-24T00:14:04;1.75;;;1.65;;
21202;SDS011;10759;51.982;9.232;2022-07-24T00:16:36;2.78;;;1.60;;
21202;SDS011;10759;51.982;9.232;2022-07-24T00:19:04;2.35;;;1.55;;
21202;SDS011;10759;51.982;9.232;2022-07-24T00:21:33;2.15;;;1.70;;
21202;SDS011;10759;51.982;9.232;2022-07-24T00:24:02;1.45;;;1.42;;
21202;SDS011;10759;51.982;9.232;2022-07-24T00:26:31;4.60;;;2.17;;
21202;SDS011;10759;51.982;9.232;2022-07-24T00:29:00;2.15;;;1.98;;
21202;SDS011;10759;51.982;9.232;2022-07-24T00:31:29;2.25;;;2.05;;
21202;SDS011;10759;51.982;9.232;2022-07-24T00:33:59;4.53;;;2.22;;
21202;SDS011;10759;51.982;9.232;2022-07-24T00:36:27;2.88;;;2.22;;
21202;SDS011;10759;51.982;9.232;2022-07-24T00:38:55;2.20;;;2.00;;
21202;SDS011;10759;51.982;9.232;2022-07-24T00:41:24;3.05;;;2.10;;
21202;SDS011;10759;51.982;9.232;2022-07-24T00:44:00;2.33;;;2.13;;
21202;SDS011;10759;51.982;9.232;2022-07-24T00:46:31;2.40;;;2.20;;
21202;SDS011;10759;51.982;9.232;2022-07-24T00:49:00;2.40;;;2.30;;
21202;SDS011;10759;51.982;9.232;2022-07-24T00:51:29;3.30;;;2.35;;
21202;SDS011;10759;51.982;9.232;2022-07-24T00:53:57;1.80;;;1.70;;
21202;SDS011;10759;51.982;9.232;2022-07-24T00:56:25;2.40;;;2.20;;
21202;SDS011;10759;51.982;9.232;2022-07-24T00:58:54;1.80;;;1.70;;
21202;SDS011;10759;51.982;9.232;2022-07-24T01:01:23;1.95;;;1.85;;
21202;SDS011;10759;51.982;9.232;2022-07-24T01:03:51;1.97;;;1.80;;
21202;SDS011;10759;51.982;9.232;2022-07-24T01:06:20;2.00;;;1.90;;
21202;SDS011;10759;51.982;9.232;2022-07-24T01:08:49;1.73;;;1.63;;
21202;SDS011;10759;51.982;9.232;2022-07-24T01:11:18;2.33;;;2.03;;
21202;SDS011;10759;51.982;9.232;2022-07-24T01:13:47;2.95;;;1.95;;
21202;SDS011;10759;51.982;9.232;2022-07-24T01:16:16;1.92;;;1.80;;
21202;SDS011;10759;51.982;9.232;2022-07-24T01:18:47;2.92;;;2.03;;
21202;SDS011;10759;51.982;9.232;2022-07-24T01:21:16;2.33;;;2.22;;
21202;SDS011;10759;51.982;9.232;2022-07-24T01:23:45;2.08;;;1.98;;
21202;SDS011;10759;51.982;9.232;2022-07-24T01:26:13;1.65;;;1.52;;
21202;SDS011;10759;51.982;9.232;2022-07-24T01:28:42;1.95;;;1.50;;
21202;SDS011;10759;51.982;9.232;2022-07-24T01:31:10;1.92;;;1.80;;
21202;SDS011;10759;51.982;9.232;2022-07-24T01:33:38;2.00;;;1.77;;
21202;SDS011;10759;51.982;9.232;2022-07-24T01:36:07;3.47;;;1.90;;
21202;SDS011;10759;51.982;9.232;2022-07-24T01:38:36;1.90;;;1.80;;
21202;SDS011;10759;51.982;9.232;2022-07-24T01:41:05;1.80;;;1.70;;
21202;SDS011;10759;51.982;9.232;2022-07-24T01:43:33;1.83;;;1.52;;
21202;SDS011;10759;51.982;9.232;2022-07-24T01:46:01;1.83;;;1.73;;
21202;SDS011;10759;51.982;9.232;2022-07-24T01:48:29;1.70;;;1.60;;
21202;SDS011;10759;51.982;9.232;2022-07-24T01:50:58;1.80;;;1.70;;
21202;SDS011;10759;51.982;9.232;2022-07-24T01:53:26;1.80;;;1.70;;
21202;SDS011;10759;51.982;9.232;2022-07-24T01:55:55;1.80;;;1.70;;
21202;SDS011;10759;51.982;9.232;2022-07-24T01:58:23;2.33;;;1.80;;
21202;SDS011;10759;51.982;9.232;2022-07-24T02:00:52;1.90;;;1.80;;
21202;SDS011;10759;51.982;9.232;2022-07-24T02:03:21;5.10;;;2.15;;
21202;SDS011;10759;51.982;9.232;2022-07-24T02:05:49;2.45;;;2.10;;
21202;SDS011;10759;51.982;9.232;2022-07-24T02:08:17;5.03;;;1.90;;
21202;SDS011;10759;51.982;9.232;2022-07-24T02:10:45;2.22;;;2.00;;
21202;SDS011;10759;51.982;9.232;2022-07-24T02:13:15;4.28;;;1.90;;
21202;SDS011;10759;51.982;9.232;2022-07-24T02:15:43;2.10;;;2.00;;
21202;SDS011;10759;51.982;9.232;2022-07-24T02:18:11;1.88;;;1.77;;
21202;SDS011;10759;51.982;9.232;2022-07-24T02:20:40;2.55;;;2.08;;
21202;SDS011;10759;51.982;9.232;2022-07-24T02:23:08;1.98;;;1.88;;
21202;SDS011;10759;51.982;9.232;2022-07-24T02:25:37;3.25;;;2.20;;
21202;SDS011;10759;51.982;9.232;2022-07-24T02:28:05;2.35;;;2.15;;
21202;SDS011;10759;51.982;9.232;2022-07-24T02:30:35;3.63;;;2.53;;
21202;SDS011;10759;51.982;9.232;2022-07-24T02:33:03;2.55;;;2.28;;
21202;SDS011;10759;51.982;9.232;2022-07-24T02:35:31;2.50;;;2.05;;
21202;SDS011;10759;51.982;9.232;2022-07-24T02:37:59;2.22;;;2.03;;
21202;SDS011;10759;51.982;9.232;2022-07-24T02:40:27;2.13;;;2.03;;
21202;SDS011;10759;51.982;9.232;2022-07-24T02:42:55;2.63;;;2.42;;
21202;SDS011;10759;51.982;9.232;2022-07-24T02:45:24;3.15;;;2.85;;
21202;SDS011;10759;51.982;9.232;2022-07-24T02:47:54;2.45;;;2.30;;
21202;SDS011;10759;51.982;9.232;2022-07-24T02:50:25;2.35;;;2.20;;
21202;SDS011;10759;51.982;9.232;2022-07-24T02:52:56;2.78;;;2.30;;
21202;SDS011;10759;51.982;9.232;2022-07-24T02:55:25;3.38;;;2.20;;
21202;SDS011;10759;51.982;9.232;2022-07-24T02:57:55;2.40;;;2.20;;
21202;SDS011;10759;51.982;9.232;2022-07-24T03:00:23;2.75;;;2.35;;
21202;SDS011;10759;51.982;9.232;2022-07-24T03:02:51;2.78;;;2.58;;
21202;SDS011;10759;51.982;9.232;2022-07-24T03:05:21;2.25;;;2.15;;
21202;SDS011;10759;51.982;9.232;2022-07-24T03:07:50;2.28;;;1.98;;
21202;SDS011;10759;51.982;9.232;2022-07-24T03:10:18;2.17;;;2.08;;
21202;SDS011;10759;51.982;9.232;2022-07-24T03:12:47;2.20;;;2.00;;
21202;SDS011;10759;51.982;9.232;2022-07-24T03:15:16;2.50;;;2.00;;
21202;SDS011;10759;51.982;9.232;2022-07-24T03:17:48;2.03;;;1.92;;
21202;SDS011;10759;51.982;9.232;2022-07-24T03:20:18;2.38;;;2.20;;
21202;SDS011;10759;51.982;9.232;2022-07-24T03:22:47;2.92;;;2.35;;
21202;SDS011;10759;51.982;9.232;2022-07-24T03:25:16;2.05;;;1.95;;
21202;SDS011;10759;51.982;9.232;2022-07-24T03:27:45;2.60;;;2.33;;
21202;SDS011;10759;51.982;9.232;2022-07-24T03:30:14;2.35;;;2.05;;
21202;SDS011;10759;51.982;9.232;2022-07-24T03:32:43;2.80;;;2.25;;
21202;SDS011;10759;51.982;9.232;2022-07-24T03:35:12;2.30;;;2.10;;
21202;SDS011;10759;51.982;9.232;2022-07-24T03:37:42;2.08;;;1.98;;
21202;SDS011;10759;51.982;9.232;2022-07-24T03:40:11;2.78;;;2.20;;
21202;SDS011;10759;51.982;9.232;2022-07-24T03:42:39;3.97;;;2.33;;
21202;SDS011;10759;51.982;9.232;2022-07-24T03:45:08;2.28;;;2.17;;
21202;SDS011;10759;51.982;9.232;2022-07-24T03:47:37;2.78;;;2.50;;
21202;SDS011;10759;51.982;9.232;2022-07-24T03:50:05;2.85;;;2.10;;
21202;SDS011;10759;51.982;9.232;2022-07-24T03:52:34;2.60;;;2.40;;
21202;SDS011;10759;51.982;9.232;2022-07-24T03:55:04;2.58;;;2.35;;
21202;SDS011;10759;51.982;9.232;2022-07-24T03:57:33;2.17;;;2.08;;
21202;SDS011;10759;51.982;9.232;2022-07-24T04:00:02;2.65;;;2.45;;
21202;SDS011;10759;51.982;9.232;2022-07-24T04:02:38;4.18;;;2.42;;
21202;SDS011;10759;51.982;9.232;2022-07-24T04:05:07;3.20;;;2.90;;
21202;SDS011;10759;51.982;9.232;2022-07-24T04:07:36;3.00;;;2.28;;
21202;SDS011;10759;51.982;9.232;2022-07-24T04:10:07;2.83;;;2.60;;
21202;SDS011;10759;51.982;9.232;2022-07-24T04:12:36;2.67;;;2.47;;
21202;SDS011;10759;51.982;9.232;2022-07-24T04:15:05;3.00;;;2.67;;
21202;SDS011;10759;51.982;9.232;2022-07-24T04:17:37;2.92;;;2.55;;
21202;SDS011;10759;51.982;9.232;2022-07-24T04:20:07;2.50;;;2.30;;
21202;SDS011;10759;51.982;9.232;2022-07-24T04:22:36;2.72;;;2.30;;
21202;SDS011;10759;51.982;9.232;2022-07-24T04:25:07;3.25;;;2.38;;
21202;SDS011;10759;51.982;9.232;2022-07-24T04:27:36;2.40;;;2.20;;
21202;SDS011;10759;51.982;9.232;2022-07-24T04:30:05;2.90;;;2.20;;
21202;SDS011;10759;51.982;9.232;2022-07-24T04:32:34;2.33;;;2.13;;
21202;SDS011;10759;51.982;9.232;2022-07-24T04:35:02;3.72;;;1.85;;
21202;SDS011;10759;51.982;9.232;2022-07-24T04:37:30;3.63;;;1.52;;
21202;SDS011;10759;51.982;9.232;2022-07-24T04:39:58;1.85;;;1.63;;
21202;SDS011;10759;51.982;9.232;2022-07-24T04:42:28;1.88;;;1.77;;
21202;SDS011;10759;51.982;9.232;2022-07-24T04:44:56;2.08;;;1.90;;
21202;SDS011;10759;51.982;9.232;2022-07-24T04:47:24;4.13;;;2.08;;
21202;SDS011;10759;51.982;9.232;2022-07-24T04:49:53;2.38;;;2.15;;
21202;SDS011;10759;51.982;9.232;2022-07-24T04:52:21;3.10;;;2.08;;
21202;SDS011;10759;51.982;9.232;2022-07-24T04:54:49;2.65;;;2.30;;
21202;SDS011;10759;51.982;9.232;2022-07-24T04:57:17;2.35;;;2.13;;
21202;SDS011;10759;51.982;9.232;2022-07-24T04:59:46;2.40;;;2.30;;
21202;SDS011;10759;51.982;9.232;2022-07-24T05:02:14;2.43;;;2.20;;
21202;SDS011;10759;51.982;9.232;2022-07-24T05:04:42;2.50;;;2.30;;
21202;SDS011;10759;51.982;9.232;2022-07-24T05:07:10;3.15;;;2.58;;
21202;SDS011;10759;51.982;9.232;2022-07-24T05:09:38;4.20;;;2.50;;
21202;SDS011;10759;51.982;9.232;2022-07-24T05:12:07;2.72;;;2.53;;
21202;SDS011;10759;51.982;9.232;2022-07-24T05:14:35;2.55;;;2.40;;
21202;SDS011;10759;51.982;9.232;2022-07-24T05:17:04;2.55;;;2.45;;
21202;SDS011;10759;51.982;9.232;2022-07-24T05:19:32;2.80;;;2.60;;
21202;SDS011;10759;51.982;9.232;2022-07-24T05:22:01;3.85;;;2.70;;
21202;SDS011;10759;51.982;9.232;2022-07-24T05:24:29;2.78;;;2.58;;
21202;SDS011;10759;51.982;9.232;2022-07-24T05:26:57;2.83;;;2.53;;
21202;SDS011;10759;51.982;9.232;2022-07-24T05:29:25;2.63;;;2.40;;
21202;SDS011;10759;51.982;9.232;2022-07-24T05:31:53;2.70;;;2.60;;
21202;SDS011;10759;51.982;9.232;2022-07-24T05:34:23;4.05;;;2.75;;
21202;SDS011;10759;51.982;9.232;2022-07-24T05:36:51;2.83;;;2.63;;
21202;SDS011;10759;51.982;9.232;2022-07-24T05:39:19;3.20;;;2.90;;
21202;SDS011;10759;51.982;9.232;2022-07-24T05:41:48;3.65;;;2.55;;
21202;SDS011;10759;51.982;9.232;2022-07-24T05:44:16;3.40;;;2.80;;
21202;SDS011;10759;51.982;9.232;2022-07-24T05:46:44;3.78;;;2.78;;
21202;SDS011;10759;51.982;9.232;2022-07-24T05:49:12;2.63;;;2.42;;
21202;SDS011;10759;51.982;9.232;2022-07-24T05:51:42;3.00;;;2.80;;
21202;SDS011;10759;51.982;9.232;2022-07-24T05:54:11;3.75;;;3.38;;
21202;SDS011;10759;51.982;9.232;2022-07-24T05:56:39;3.30;;;3.00;;
21202;SDS011;10759;51.982;9.232;2022-07-24T05:59:08;3.00;;;2.80;;
21202;SDS011;10759;51.982;9.232;2022-07-24T06:01:36;4.15;;;3.38;;
21202;SDS011;10759;51.982;9.232;2022-07-24T06:04:04;2.70;;;2.50;;
21202;SDS011;10759;51.982;9.232;2022-07-24T06:06:32;2.80;;;2.60;;
21202;SDS011;10759;51.982;9.232;2022-07-24T06:09:02;3.67;;;2.75;;
21202;SDS011;10759;51.982;9.232;2022-07-24T06:11:31;3.00;;;2.65;;
21202;SDS011;10759;51.982;9.232;2022-07-24T06:14:00;2.60;;;2.30;;
21202;SDS011;10759;51.982;9.232;2022-07-24T06:16:28;2.63;;;2.45;;
21202;SDS011;10759;51.982;9.232;2022-07-24T06:18:56;2.72;;;2.30;;
21202;SDS011;10759;51.982;9.232;2022-07-24T06:21:25;4.43;;;2.13;;
21202;SDS011;10759;51.982;9.232;2022-07-24T06:23:53;2.90;;;2.42;;
21202;SDS011;10759;51.982;9.232;2022-07-24T06:26:23;2.58;;;2.03;;
21202;SDS011;10759;51.982;9.232;2022-07-24T06:28:51;2.40;;;2.20;;
21202;SDS011;10759;51.982;9.232;2022-07-24T06:31:19;3.00;;;2.17;;
21202;SDS011;10759;51.982;9.232;2022-07-24T06:33:47;3.72;;;2.13;;
21202;SDS011;10759;51.982;9.232;2022-07-24T06:36:15;2.92;;;1.90;;
21202;SDS011;10759;51.982;9.232;2022-07-24T06:38:43;3.70;;;2.40;;
21202;SDS011;10759;51.982;9.232;2022-07-24T06:41:11;2.15;;;1.95;;
21202;SDS011;10759;51.982;9.232;2022-07-24T06:43:41;2.40;;;2.20;;
21202;SDS011;10759;51.982;9.232;2022-07-24T06:46:09;2.07;;;1.90;;
21202;SDS011;10759;51.982;9.232;2022-07-24T06:48:37;3.30;;;2.50;;
21202;SDS011;10759;51.982;9.232;2022-07-24T06:51:05;2.42;;;1.98;;
21202;SDS011;10759;51.982;9.232;2022-07-24T06:53:33;1.90;;;1.80;;
21202;SDS011;10759;51.982;9.232;2022-07-24T06:56:01;3.30;;;2.17;;
21202;SDS011;10759;51.982;9.232;2022-07-24T06:58:29;2.05;;;1.73;;
21202;SDS011;10759;51.982;9.232;2022-07-24T07:00:59;2.40;;;2.05;;
21202;SDS011;10759;51.982;9.232;2022-07-24T07:03:27;1.90;;;1.77;;
21202;SDS011;10759;51.982;9.232;2022-07-24T07:05:55;1.95;;;1.85;;
21202;SDS011;10759;51.982;9.232;2022-07-24T07:08:23;2.38;;;2.15;;
21202;SDS011;10759;51.982;9.232;2022-07-24T07:10:51;2.08;;;1.85;;
21202;SDS011;10759;51.982;9.232;2022-07-24T07:13:20;1.98;;;1.70;;
21202;SDS011;10759;51.982;9.232;2022-07-24T07:15:48;3.38;;;1.83;;
21202;SDS011;10759;51.982;9.232;2022-07-24T07:18:18;3.33;;;1.70;;
21202;SDS011;10759;51.982;9.232;2022-07-24T07:20:46;2.08;;;1.85;;
21202;SDS011;10759;51.982;9.232;2022-07-24T07:23:20;2.10;;;1.90;;
21202;SDS011;10759;51.982;9.232;2022-07-24T07:25:53;2.58;;;1.88;;
21202;SDS011;10759;51.982;9.232;2022-07-24T07:28:21;2.10;;;2.00;;
21202;SDS011;10759;51.982;9.232;2022-07-24T07:30:49;3.22;;;2.15;;
21202;SDS011;10759;51.982;9.232;2022-07-24T07:33:19;3.00;;;2.10;;
21202;SDS011;10759;51.982;9.232;2022-07-24T07:35:47;3.72;;;2.10;;
21202;SDS011;10759;51.982;9.232;2022-07-24T07:38:15;2.67;;;2.17;;
21202;SDS011;10759;51.982;9.232;2022-07-24T07:40:50;2.53;;;2.33;;
21202;SDS011;10759;51.982;9.232;2022-07-24T07:43:18;2.88;;;2.53;;
21202;SDS011;10759;51.982;9.232;2022-07-24T07:45:46;2.70;;;2.50;;
21202;SDS011;10759;51.982;9.232;2022-07-24T07:48:15;3.13;;;2.50;;
21202;SDS011;10759;51.982;9.232;2022-07-24T07:50:45;2.50;;;2.25;;
21202;SDS011;10759;51.982;9.232;2022-07-24T07:53:13;2.55;;;2.35;;
21202;SDS011;10759;51.982;9.232;2022-07-24T07:55:41;3.17;;;2.90;;
21202;SDS011;10759;51.982;9.232;2022-07-24T07:58:10;2.67;;;2.47;;
21202;SDS011;10759;51.982;9.232;2022-07-24T08:00:38;3.72;;;2.80;;
21202;SDS011;10759;51.982;9.232;2022-07-24T08:03:06;2.90;;;2.63;;
21202;SDS011;10759;51.982;9.232;2022-07-24T08:05:34;5.18;;;3.20;;
21202;SDS011;10759;51.982;9.232;2022-07-24T08:08:04;3.50;;;3.20;;
21202;SDS011;10759;51.982;9.232;2022-07-24T08:10:33;3.50;;;3.20;;
21202;SDS011;10759;51.982;9.232;2022-07-24T08:13:02;3.75;;;2.88;;
21202;SDS011;10759;51.982;9.232;2022-07-24T08:15:31;5.32;;;3.20;;
21202;SDS011;10759;51.982;9.232;2022-07-24T08:17:59;4.38;;;3.30;;
21202;SDS011;10759;51.982;9.232;2022-07-24T08:20:27;4.32;;;3.50;;
21202;SDS011;10759;51.982;9.232;2022-07-24T08:22:55;4.45;;;3.67;;
21202;SDS011;10759;51.982;9.232;2022-07-24T08:25:26;3.90;;;3.53;;
21202;SDS011;10759;51.982;9.232;2022-07-24T08:27:54;4.10;;;3.75;;
21202;SDS011;10759;51.982;9.232;2022-07-24T08:30:22;5.20;;;4.00;;
21202;SDS011;10759;51.982;9.232;2022-07-24T08:32:52;4.07;;;3.83;;
21202;SDS011;10759;51.982;9.232;2022-07-24T08:35:20;3.38;;;2.97;;
21202;SDS011;10759;51.982;9.232;2022-07-24T08:37:57;4.43;;;4.00;;
21202;SDS011;10759;51.982;9.232;2022-07-24T08:40:27;4.10;;;3.80;;
21202;SDS011;10759;51.982;9.232;2022-07-24T08:43:02;5.15;;;4.05;;
21202;SDS011;10759;51.982;9.232;2022-07-24T08:45:31;4.57;;;4.18;;
21202;SDS011;10759;51.982;9.232;2022-07-24T08:48:03;4.25;;;3.85;;
21202;SDS011;10759;51.982;9.232;2022-07-24T08:50:33;7.00;;;4.32;;
21202;SDS011;10759;51.982;9.232;2022-07-24T08:53:02;5.53;;;5.00;;
21202;SDS011;10759;51.982;9.232;2022-07-24T08:55:33;5.70;;;4.88;;
21202;SDS011;10759;51.982;9.232;2022-07-24T08:58:01;5.30;;;4.57;;
21202;SDS011;10759;51.982;9.232;2022-07-24T09:00:30;7.55;;;4.63;;
21202;SDS011;10759;51.982;9.232;2022-07-24T09:02:59;4.63;;;4.22;;
21202;SDS011;10759;51.982;9.232;2022-07-24T09:05:27;4.95;;;4.55;;
21202;SDS011;10759;51.982;9.232;2022-07-24T09:08:07;4.50;;;4.05;;
21202;SDS011;10759;51.982;9.232;2022-07-24T09:10:38;5.82;;;5.38;;
21202;SDS011;10759;51.982;9.232;2022-07-24T09:13:13;5.32;;;4.82;;
21202;SDS011;10759;51.982;9.232;2022-07-24T09:15:43;5.72;;;5.22;;
21202;SDS011;10759;51.982;9.232;2022-07-24T09:21:11;5.97;;;5.38;;
21202;SDS011;10759;51.982;9.232;2022-07-24T09:23:41;5.90;;;5.40;;
21202;SDS011;10759;51.982;9.232;2022-07-24T09:26:11;5.50;;;5.10;;
21202;SDS011;10759;51.982;9.232;2022-07-24T09:31:14;5.68;;;5.18;;
21202;SDS011;10759;51.982;9.232;2022-07-24T09:33:42;6.22;;;5.63;;
21202;SDS011;10759;51.982;9.232;2022-07-24T09:36:11;5.93;;;5.43;;
21202;SDS011;10759;51.982;9.232;2022-07-24T09:38:43;5.93;;;5.43;;
21202;SDS011;10759;51.982;9.232;2022-07-24T09:41:20;6.18;;;5.57;;
21202;SDS011;10759;51.982;9.232;2022-07-24T09:43:56;6.03;;;5.63;;
21202;SDS011;10759;51.982;9.232;2022-07-24T09:46:26;5.55;;;5.15;;
21202;SDS011;10759;51.982;9.232;2022-07-24T09:48:55;5.85;;;5.07;;
21202;SDS011;10759;51.982;9.232;2022-07-24T09:51:26;5.60;;;5.20;;
21202;SDS011;10759;51.982;9.232;2022-07-24T09:53:55;5.80;;;5.20;;
21202;SDS011;10759;51.982;9.232;2022-07-24T09:56:27;5.95;;;5.28;;
21202;SDS011;10759;51.982;9.232;2022-07-24T09:58:55;7.05;;;5.68;;
21202;SDS011;10759;51.982;9.232;2022-07-24T10:01:27;5.78;;;5.38;;
21202;SDS011;10759;51.982;9.232;2022-07-24T10:03:55;6.97;;;5.22;;
21202;SDS011;10759;51.982;9.232;2022-07-24T10:06:25;6.40;;;5.82;;
21202;SDS011;10759;51.982;9.232;2022-07-24T10:08:54;6.22;;;5.50;;
21202;SDS011;10759;51.982;9.232;2022-07-24T10:11:23;8.02;;;5.47;;
21202;SDS011;10759;51.982;9.232;2022-07-24T10:13:54;6.35;;;5.88;;
21202;SDS011;10759;51.982;9.232;2022-07-24T10:16:28;5.93;;;5.53;;
21202;SDS011;10759;51.982;9.232;2022-07-24T10:18:58;5.65;;;5.15;;
21202;SDS011;10759;51.982;9.232;2022-07-24T10:21:29;6.35;;;5.72;;
21202;SDS011;10759;51.982;9.232;2022-07-24T10:24:12;6.05;;;5.65;;
21202;SDS011;10759;51.982;9.232;2022-07-24T10:27:06;6.38;;;5.93;;
21202;SDS011;10759;51.982;9.232;2022-07-24T10:29:46;6.45;;;6.05;;
21202;SDS011;10759;51.982;9.232;2022-07-24T10:32:16;5.43;;;4.95;;
21202;SDS011;10759;51.982;9.232;2022-07-24T10:34:46;5.60;;;5.23;;
21202;SDS011;10759;51.982;9.232;2022-07-24T10:37:22;6.70;;;5.63;;
21202;SDS011;10759;51.982;9.232;2022-07-24T10:40:00;6.22;;;5.72;;
21202;SDS011;10759;51.982;9.232;2022-07-24T10:45:39;5.90;;;5.50;;
21202;SDS011;10759;51.982;9.232;2022-07-24T10:48:29;6.50;;;5.93;;
21202;SDS011;10759;51.982;9.232;2022-07-24T10:50:59;5.65;;;5.22;;
21202;SDS011;10759;51.982;9.232;2022-07-24T10:56:21;7.75;;;6.10;;
21202;SDS011;10759;51.982;9.232;2022-07-24T10:58:52;6.97;;;5.35;;
21202;SDS011;10759;51.982;9.232;2022-07-24T11:01:29;6.05;;;5.65;;
21202;SDS011;10759;51.982;9.232;2022-07-24T11:04:03;6.75;;;5.88;;
21202;SDS011;10759;51.982;9.232;2022-07-24T11:06:51;6.55;;;5.97;;
21202;SDS011;10759;51.982;9.232;2022-07-24T11:12:05;6.90;;;6.30;;
21202;SDS011;10759;51.982;9.232;2022-07-24T11:14:46;6.55;;;6.05;;
21202;SDS011;10759;51.982;9.232;2022-07-24T11:20:20;8.27;;;6.18;;
21202;SDS011;10759;51.982;9.232;2022-07-24T11:22:50;6.13;;;5.72;;
21202;SDS011;10759;51.982;9.232;2022-07-24T11:25:20;6.40;;;6.00;;
21202;SDS011;10759;51.982;9.232;2022-07-24T11:27:51;7.07;;;6.57;;
21202;SDS011;10759;51.982;9.232;2022-07-24T11:30:23;7.03;;;6.53;;
21202;SDS011;10759;51.982;9.232;2022-07-24T11:32:54;6.80;;;6.30;;
21202;SDS011;10759;51.982;9.232;2022-07-24T11:35:26;6.93;;;6.43;;
21202;SDS011;10759;51.982;9.232;2022-07-24T11:37:56;7.38;;;6.68;;
21202;SDS011;10759;51.982;9.232;2022-07-24T11:40:26;6.85;;;6.35;;
21202;SDS011;10759;51.982;9.232;2022-07-24T11:42:54;7.15;;;6.43;;
21202;SDS011;10759;51.982;9.232;2022-07-24T11:45:25;7.28;;;6.60;;
21202;SDS011;10759;51.982;9.232;2022-07-24T11:47:55;7.53;;;6.93;;
21202;SDS011;10759;51.982;9.232;2022-07-24T11:50:25;7.63;;;7.03;;
21202;SDS011;10759;51.982;9.232;2022-07-24T11:52:54;7.82;;;7.22;;
21202;SDS011;10759;51.982;9.232;2022-07-24T11:55:23;7.93;;;7.00;;
21202;SDS011;10759;51.982;9.232;2022-07-24T11:57:53;6.93;;;6.38;;
21202;SDS011;10759;51.982;9.232;2022-07-24T12:00:43;7.60;;;7.10;;
21202;SDS011;10759;51.982;9.232;2022-07-24T12:03:12;6.78;;;6.28;;
21202;SDS011;10759;51.982;9.232;2022-07-24T12:05:41;7.03;;;6.50;;
21202;SDS011;10759;51.982;9.232;2022-07-24T12:08:16;7.38;;;6.75;;
21202;SDS011;10759;51.982;9.232;2022-07-24T12:10:48;6.90;;;6.50;;
21202;SDS011;10759;51.982;9.232;2022-07-24T12:13:23;7.53;;;7.03;;
21202;SDS011;10759;51.982;9.232;2022-07-24T12:15:51;6.70;;;6.28;;
21202;SDS011;10759;51.982;9.232;2022-07-24T12:18:21;7.75;;;6.82;;
21202;SDS011;10759;51.982;9.232;2022-07-24T12:20:57;8.10;;;7.32;;
21202;SDS011;10759;51.982;9.232;2022-07-24T12:23:26;8.07;;;7.28;;
21202;SDS011;10759;51.982;9.232;2022-07-24T12:25:55;6.90;;;6.40;;
21202;SDS011;10759;51.982;9.232;2022-07-24T12:28:24;6.68;;;6.18;;
21202;SDS011;10759;51.982;9.232;2022-07-24T12:30:52;7.40;;;6.90;;
21202;SDS011;10759;51.982;9.232;2022-07-24T12:33:24;6.55;;;6.15;;
21202;SDS011;10759;51.982;9.232;2022-07-24T12:35:56;6.90;;;6.30;;
21202;SDS011;10759;51.982;9.232;2022-07-24T12:38:27;7.53;;;6.82;;
21202;SDS011;10759;51.982;9.232;2022-07-24T12:41:03;7.82;;;7.13;;
21202;SDS011;10759;51.982;9.232;2022-07-24T12:43:33;8.82;;;8.15;;
21202;SDS011;10759;51.982;9.232;2022-07-24T12:46:05;7.20;;;6.70;;
21202;SDS011;10759;51.982;9.232;2022-07-24T12:48:36;7.53;;;6.90;;
21202;SDS011;10759;51.982;9.232;2022-07-24T12:51:05;7.35;;;6.65;;
21202;SDS011;10759;51.982;9.232;2022-07-24T12:53:37;7.25;;;6.75;;
21202;SDS011;10759;51.982;9.232;2022-07-24T12:56:08;6.70;;;6.30;;
21202;SDS011;10759;51.982;9.232;2022-07-24T12:58:48;7.28;;;6.75;;
21202;SDS011;10759;51.982;9.232;2022-07-24T13:01:44;7.00;;;6.40;;
21202;SDS011;10759;51.982;9.232;2022-07-24T13:04:17;7.30;;;6.70;;
21202;SDS011;10759;51.982;9.232;2022-07-24T13:06:47;6.15;;;5.75;;
21202;SDS011;10759;51.982;9.232;2022-07-24T13:09:17;7.18;;;6.47;;
21202;SDS011;10759;51.982;9.232;2022-07-24T13:11:48;7.28;;;6.57;;
21202;SDS011;10759;51.982;9.232;2022-07-24T13:14:17;6.55;;;6.05;;
21202;SDS011;10759;51.982;9.232;2022-07-24T13:16:47;6.22;;;5.72;;
21202;SDS011;10759;51.982;9.232;2022-07-24T13:19:19;6.38;;;5.70;;
21202;SDS011;10759;51.982;9.232;2022-07-24T13:21:48;6.85;;;6.35;;
21202;SDS011;10759;51.982;9.232;2022-07-24T13:24:16;6.47;;;6.07;;
21202;SDS011;10759;51.982;9.232;2022-07-24T13:26:49;6.47;;;5.85;;
21202;SDS011;10759;51.982;9.232;2022-07-24T13:29:17;6.43;;;5.93;;
21202;SDS011;10759;51.982;9.232;2022-07-24T13:31:45;6.78;;;6.18;;
21202;SDS011;10759;51.982;9.232;2022-07-24T13:34:13;6.65;;;6.15;;
21202;SDS011;10759;51.982;9.232;2022-07-24T13:36:43;6.93;;;6.32;;
21202;SDS011;10759;51.982;9.232;2022-07-24T13:39:14;7.60;;;7.00;;
21202;SDS011;10759;51.982;9.232;2022-07-24T13:41:43;6.85;;;6.35;;
21202;SDS011;10759;51.982;9.232;2022-07-24T13:44:11;6.30;;;5.90;;
21202;SDS011;10759;51.982;9.232;2022-07-24T13:46:39;5.63;;;5.22;;
21202;SDS011;10759;51.982;9.232;2022-07-24T13:49:08;5.97;;;5.50;;
21202;SDS011;10759;51.982;9.232;2022-07-24T13:51:36;6.15;;;5.63;;
21202;SDS011;10759;51.982;9.232;2022-07-24T13:54:06;5.78;;;5.38;;
21202;SDS011;10759;51.982;9.232;2022-07-24T13:56:35;6.35;;;5.82;;
21202;SDS011;10759;51.982;9.232;2022-07-24T13:59:04;6.00;;;5.70;;
21202;SDS011;10759;51.982;9.232;2022-07-24T14:01:32;6.40;;;5.75;;
21202;SDS011;10759;51.982;9.232;2022-07-24T14:04:01;7.20;;;6.67;;
21202;SDS011;10759;51.982;9.232;2022-07-24T14:06:50;7.20;;;6.63;;
21202;SDS011;10759;51.982;9.232;2022-07-24T14:09:20;7.10;;;5.85;;
21202;SDS011;10759;51.982;9.232;2022-07-24T14:11:49;6.38;;;5.88;;
21202;SDS011;10759;51.982;9.232;2022-07-24T14:14:19;6.47;;;5.90;;
21202;SDS011;10759;51.982;9.232;2022-07-24T14:16:47;6.22;;;5.82;;
21202;SDS011;10759;51.982;9.232;2022-07-24T14:19:15;6.40;;;5.60;;
21202;SDS011;10759;51.982;9.232;2022-07-24T14:21:43;6.25;;;5.85;;
21202;SDS011;10759;51.982;9.232;2022-07-24T14:24:15;6.55;;;6.05;;
21202;SDS011;10759;51.982;9.232;2022-07-24T14:26:48;5.95;;;5.55;;
21202;SDS011;10759;51.982;9.232;2022-07-24T14:29:17;6.70;;;6.10;;
21202;SDS011;10759;51.982;9.232;2022-07-24T14:31:46;7.15;;;6.60;;
21202;SDS011;10759;51.982;9.232;2022-07-24T14:34:14;6.13;;;5.60;;
21202;SDS011;10759;51.982;9.232;2022-07-24T14:39:12;6.03;;;5.63;;
21202;SDS011;10759;51.982;9.232;2022-07-24T14:41:40;6.90;;;6.38;;
21202;SDS011;10759;51.982;9.232;2022-07-24T14:44:10;6.35;;;5.93;;
21202;SDS011;10759;51.982;9.232;2022-07-24T14:49:07;7.20;;;6.60;;
21202;SDS011;10759;51.982;9.232;2022-07-24T14:51:36;6.97;;;6.47;;
21202;SDS011;10759;51.982;9.232;2022-07-24T14:54:05;6.65;;;6.05;;
21202;SDS011;10759;51.982;9.232;2022-07-24T14:56:34;6.50;;;6.00;;
21202;SDS011;10759;51.982;9.232;2022-07-24T14:59:03;6.72;;;6.18;;
21202;SDS011;10759;51.982;9.232;2022-07-24T15:01:33;7.07;;;6.38;;
21202;SDS011;10759;51.982;9.232;2022-07-24T15:04:05;6.75;;;6.15;;
21202;SDS011;10759;51.982;9.232;2022-07-24T15:06:35;7.15;;;6.65;;
21202;SDS011;10759;51.982;9.232;2022-07-24T15:09:04;6.37;;;5.87;;
21202;SDS011;10759;51.982;9.232;2022-07-24T15:11:32;6.85;;;6.30;;
21202;SDS011;10759;51.982;9.232;2022-07-24T15:14:00;6.65;;;6.15;;
21202;SDS011;10759;51.982;9.232;2022-07-24T15:16:29;6.28;;;5.72;;
21202;SDS011;10759;51.982;9.232;2022-07-24T15:18:59;6.70;;;6.07;;
21202;SDS011;10759;51.982;9.232;2022-07-24T15:21:33;6.65;;;6.25;;
21202;SDS011;10759;51.982;9.232;2022-07-24T15:24:01;6.80;;;6.30;;
21202;SDS011;10759;51.982;9.232;2022-07-24T15:26:30;6.90;;;6.50;;